This is the latest recevied weather packets stored in our database for station/object OM5AMD-15. If no packets are shown the sender has not sent any weather packets the latest 10 day(s).
| Time | Temp. | Humidity | Pressure | Rain* | Wind** | Luminosity | Snow |
|---|---|---|---|---|---|---|---|
| 1777093835 | 11.11° C | 51% | 1020.5 hPa | 0 mm | - | - | - |
| 1777092049 | 10° C | 52% | 1020.5 hPa | 0 mm | - | - | - |
| 1777089035 | 10° C | 51% | 1020.5 hPa | 0 mm | - | - | - |
| 1777088431 | 10° C | 51% | 1019.5 hPa | 0 mm | - | - | - |
| 1777087820 | 10° C | 51% | 1019.5 hPa | 0 mm | - | - | - |
| 1777087243 | 10° C | 51% | 1019.5 hPa | 0 mm | - | - | - |
| 1777085423 | 10° C | 51% | 1019.5 hPa | 0 mm | - | - | - |
| 1777078825 | 10° C | 48% | 1019.5 hPa | 0 mm | - | - | - |
| 1777068641 | 13.33° C | 40% | 1019.5 hPa | 0 mm | - | - | - |
| 1777061461 | 15.56° C | 35% | 1019.5 hPa | 0 mm | - | - | - |
| 1777056025 | 17.78° C | 34% | 1018.5 hPa | 0 mm | - | - | - |
| 1777054825 | 18.33° C | 33% | 1018.5 hPa | 0 mm | - | - | - |
| 1777051237 | 20° C | 29% | 1017.5 hPa | 0 mm | - | - | - |
| 1777048837 | 20.56° C | 27% | 1017.5 hPa | 0 mm | - | - | - |
| 1777045248 | 21.11° C | 26% | 1018.5 hPa | 0 mm | - | - | - |
| 1777040443 | 21.67° C | 27% | 1018.5 hPa | 0 mm | - | - | - |
| 1777035038 | 21.67° C | 27% | 1018.5 hPa | 0 mm | - | - | - |
| 1777033225 | 21.67° C | 27% | 1019.5 hPa | 0 mm | - | - | - |
| 1777032637 | 21.67° C | 28% | 1019.5 hPa | 0 mm | - | - | - |
| 1777031419 | 21.11° C | 28% | 1019.5 hPa | 0 mm | - | - | - |
| 1777028437 | 20.56° C | 31% | 1020.5 hPa | 0 mm | - | - | - |
| 1777026025 | 20° C | 33% | 1020.5 hPa | 0 mm | - | - | - |
| 1777024220 | 19.44° C | 34% | 1020.5 hPa | 0 mm | - | - | - |
| 1777023617 | 18.89° C | 34% | 1021.5 hPa | 0 mm | - | - | - |
| 1777019432 | 18.33° C | 38% | 1021.5 hPa | 0 mm | - | - | - |
* Rain latest hour (hover to see other rain measurements)
** Current wind speed in m/s (hover to see current wind gust speed)